Time;durP1;ratioP1;P1;durP2;ratioP2;P2;SDS_P1;SDS_P2;PMS_P1;PMS_P2;Temp;Humidity;BMP_temperature;BMP_pressure;BME280_temperature;BME280_humidity;BME280_pressure;Samples;Min_cycle;Max_cycle;Signal;HPM_P1;HPM_P2
2022/05/17 00:01:51;;;;;;;6.27;4.70;;;15.70;99.90;;;;;;4972640;28;20200;-61
2022/05/17 00:04:17;;;;;;;9.80;4.30;;;15.60;99.90;;;;;;4968368;28;20622;-61
2022/05/17 00:06:42;;;;;;;5.50;4.70;;;15.60;99.90;;;;;;4964481;28;20578;-61
2022/05/17 00:09:08;;;;;;;5.13;4.73;;;15.60;99.90;;;;;;4971684;28;20571;-61
2022/05/17 00:11:34;;;;;;;5.40;5.00;;;15.60;99.90;;;;;;4973003;28;20630;-61
2022/05/17 00:13:59;;;;;;;6.10;5.17;;;15.60;99.90;;;;;;4969418;28;20191;-60
2022/05/17 00:16:25;;;;;;;8.03;5.40;;;15.60;99.90;;;;;;4969847;28;20207;-60
2022/05/17 00:18:51;;;;;;;6.80;4.97;;;15.50;99.90;;;;;;4973177;28;20258;-61
2022/05/17 00:21:17;;;;;;;8.43;5.20;;;15.50;99.90;;;;;;4970975;28;20196;-60
2022/05/17 00:23:43;;;;;;;6.43;4.90;;;15.50;99.90;;;;;;4969664;28;20494;-61
2022/05/17 00:26:09;;;;;;;5.37;4.87;;;15.50;99.90;;;;;;4972032;28;20967;-61
2022/05/17 00:28:36;;;;;;;7.80;4.87;;;15.50;99.90;;;;;;4972003;28;21126;-60
2022/05/17 00:31:03;;;;;;;7.80;5.10;;;15.50;99.90;;;;;;4971113;28;20431;-60
2022/05/17 00:33:28;;;;;;;6.73;4.23;;;15.50;99.90;;;;;;4970567;28;20457;-60
2022/05/17 00:35:54;;;;;;;5.40;5.00;;;15.50;99.90;;;;;;4971241;28;20549;-60
2022/05/17 00:38:19;;;;;;;6.40;5.23;;;15.40;99.90;;;;;;4972841;28;20265;-61
2022/05/17 00:40:46;;;;;;;5.27;4.83;;;15.40;99.90;;;;;;4971944;28;20184;-60
2022/05/17 00:43:20;;;;;;;9.43;4.67;;;15.30;99.90;;;;;;4970231;28;20681;-60
2022/05/17 00:45:50;;;;;;;4.97;4.40;;;15.30;99.90;;;;;;4967787;28;20466;-60
2022/05/17 00:48:18;;;;;;;4.53;4.13;;;15.30;99.90;;;;;;4972147;28;20434;-60
2022/05/17 00:50:49;;;;;;;5.00;4.60;;;15.30;99.90;;;;;;4972107;28;20436;-60
2022/05/17 00:53:34;;;;;;;5.77;5.17;;;15.30;99.90;;;;;;4969468;28;20995;-60
2022/05/17 00:56:07;;;;;;;6.50;4.77;;;15.30;99.90;;;;;;4972486;28;20509;-60
2022/05/17 00:58:43;;;;;;;5.43;5.00;;;15.30;99.90;;;;;;4971448;28;20529;-60
2022/05/17 01:01:28;;;;;;;5.90;4.87;;;15.20;99.90;;;;;;4972521;28;20533;-60
2022/05/17 01:03:58;;;;;;;10.10;5.90;;;15.20;99.90;;;;;;4970690;28;20505;-60
2022/05/17 01:06:40;;;;;;;5.50;4.53;;;15.10;99.90;;;;;;4971531;28;20855;-61
2022/05/17 01:09:05;;;;;;;7.63;4.77;;;15.10;99.90;;;;;;4971472;28;20497;-60
2022/05/17 01:11:31;;;;;;;5.20;4.70;;;14.90;99.90;;;;;;4971015;28;21015;-60
2022/05/17 01:16:41;;;;;;;4.63;4.20;;;14.80;99.90;;;;;;4967664;28;20304;-60
2022/05/17 01:19:09;;;;;;;5.80;4.20;;;14.80;99.90;;;;;;4971796;28;20443;-60
2022/05/17 01:21:36;;;;;;;5.80;5.30;;;14.80;99.90;;;;;;4971412;28;20208;-60
2022/05/17 01:24:01;;;;;;;4.93;4.53;;;14.90;99.90;;;;;;4970413;28;20466;-60
2022/05/17 01:26:31;;;;;;;5.70;5.10;;;14.90;99.90;;;;;;4970786;28;20455;-60
2022/05/17 01:28:56;;;;;;;5.90;4.97;;;14.90;99.90;;;;;;4970378;28;20184;-61
2022/05/17 01:31:22;;;;;;;5.20;4.37;;;14.90;99.90;;;;;;4971339;28;20435;-60
2022/05/17 01:33:48;;;;;;;8.03;5.17;;;14.90;99.90;;;;;;4970035;28;20800;-61
2022/05/17 01:36:15;;;;;;;6.13;5.63;;;14.90;99.90;;;;;;4968866;28;20179;-60
2022/05/17 01:38:45;;;;;;;7.90;5.77;;;14.80;99.90;;;;;;4969166;28;20187;-61
2022/05/17 01:41:10;;;;;;;7.30;5.00;;;14.80;99.90;;;;;;4970723;28;20482;-60
2022/05/17 01:43:36;;;;;;;6.50;5.23;;;14.80;99.90;;;;;;4970768;28;20863;-60
2022/05/17 01:46:06;;;;;;;5.93;5.43;;;14.70;99.90;;;;;;4970849;28;20615;-60
2022/05/17 01:48:32;;;;;;;6.50;4.77;;;14.70;99.90;;;;;;4969968;28;20191;-60
2022/05/17 01:50:57;;;;;;;5.47;4.67;;;14.60;99.90;;;;;;4966819;28;20450;-60
2022/05/17 01:53:23;;;;;;;7.63;4.20;;;14.50;99.90;;;;;;4971444;28;20188;-61
2022/05/17 01:55:48;;;;;;;8.03;5.33;;;14.50;99.90;;;;;;4971407;28;20635;-60
2022/05/17 01:58:14;;;;;;;5.93;4.97;;;14.50;99.90;;;;;;4969436;28;20441;-60
2022/05/17 02:00:39;;;;;;;6.60;4.80;;;14.60;99.90;;;;;;4969258;28;20263;-60
2022/05/17 02:03:05;;;;;;;5.43;5.03;;;14.60;99.90;;;;;;4970451;28;20673;-60
2022/05/17 02:05:30;;;;;;;7.10;5.10;;;14.70;99.90;;;;;;4967408;28;20196;-61
2022/05/17 02:07:56;;;;;;;7.40;4.90;;;14.70;99.90;;;;;;4970343;28;20188;-60
2022/05/17 02:10:25;;;;;;;6.37;5.00;;;14.70;99.90;;;;;;4967405;28;20184;-61
2022/05/17 02:12:56;;;;;;;5.40;4.63;;;14.80;99.90;;;;;;4970473;28;20662;-61
2022/05/17 02:15:22;;;;;;;7.37;4.90;;;14.80;99.90;;;;;;4962804;28;20467;-60
2022/05/17 02:17:47;;;;;;;5.50;4.90;;;14.70;99.90;;;;;;4971421;28;20447;-60
2022/05/17 02:20:13;;;;;;;5.53;5.13;;;14.70;99.90;;;;;;4968171;28;20431;-60
2022/05/17 02:22:39;;;;;;;8.10;6.07;;;14.70;99.90;;;;;;4969510;28;20215;-60
2022/05/17 02:25:06;;;;;;;5.57;5.17;;;14.70;99.90;;;;;;4971051;28;20459;-60
2022/05/17 02:27:32;;;;;;;5.77;5.20;;;14.70;99.90;;;;;;4971184;28;20187;-61
2022/05/17 02:29:58;;;;;;;5.70;5.20;;;14.70;99.90;;;;;;4969670;28;20511;-60
2022/05/17 02:32:23;;;;;;;5.07;4.77;;;14.60;99.90;;;;;;4971937;28;20574;-60
2022/05/17 02:34:49;;;;;;;6.90;5.10;;;14.70;99.90;;;;;;4967177;28;20212;-60
2022/05/17 02:37:15;;;;;;;7.00;6.30;;;14.60;99.90;;;;;;4971350;28;20646;-61
2022/05/17 02:39:42;;;;;;;6.67;5.97;;;14.50;99.90;;;;;;4970764;28;20187;-60
2022/05/17 02:42:09;;;;;;;8.07;6.20;;;14.50;99.90;;;;;;4968913;28;20554;-60
2022/05/17 02:44:34;;;;;;;6.83;5.63;;;14.50;99.90;;;;;;4965798;28;20451;-61
2022/05/17 02:47:00;;;;;;;7.17;5.80;;;14.40;99.90;;;;;;4969334;28;21006;-60
2022/05/17 02:49:26;;;;;;;8.70;6.97;;;14.40;99.90;;;;;;4972312;28;20654;-60
2022/05/17 02:51:54;;;;;;;6.47;5.47;;;14.40;99.90;;;;;;4973384;28;20498;-60
2022/05/17 02:54:20;;;;;;;5.30;4.70;;;14.50;99.90;;;;;;4974040;28;20466;-60
2022/05/17 02:56:46;;;;;;;6.47;5.87;;;14.50;99.90;;;;;;4975201;28;20542;-59
2022/05/17 02:59:16;;;;;;;9.63;5.20;;;14.50;99.90;;;;;;4975666;28;20522;-59
2022/05/17 03:01:41;;;;;;;6.73;5.77;;;14.60;99.90;;;;;;4974222;28;21015;-60
2022/05/17 03:04:07;;;;;;;5.90;5.40;;;14.60;99.90;;;;;;4973614;28;20467;-60
2022/05/17 03:06:33;;;;;;;7.00;6.13;;;14.50;99.90;;;;;;4973417;28;20179;-61
2022/05/17 03:08:58;;;;;;;8.07;6.03;;;14.60;99.90;;;;;;4973140;28;20521;-60
2022/05/17 03:11:24;;;;;;;8.30;6.20;;;14.60;99.90;;;;;;4974381;28;20176;-60
2022/05/17 03:13:49;;;;;;;10.47;8.03;;;14.60;99.90;;;;;;4973062;28;20192;-61
2022/05/17 03:16:15;;;;;;;12.23;8.00;;;14.60;99.90;;;;;;4970838;28;20255;-61
2022/05/17 03:18:41;;;;;;;8.27;7.37;;;14.50;99.90;;;;;;4972632;28;20559;-60
2022/05/17 03:21:07;;;;;;;12.50;6.40;;;14.40;99.90;;;;;;4971623;28;20443;-60
2022/05/17 03:23:33;;;;;;;6.83;6.23;;;14.30;99.90;;;;;;4973737;28;20605;-60
2022/05/17 03:25:58;;;;;;;9.47;6.13;;;14.20;99.90;;;;;;4970017;28;20211;-61
2022/05/17 03:28:24;;;;;;;9.60;5.80;;;14.10;99.90;;;;;;4971825;28;20956;-60
2022/05/17 03:30:49;;;;;;;9.17;8.00;;;14.10;99.90;;;;;;4965207;28;20184;-61
2022/05/17 03:33:15;;;;;;;11.03;9.87;;;14.10;99.90;;;;;;4965396;28;20239;-61
2022/05/17 03:35:40;;;;;;;14.33;6.77;;;14.10;99.90;;;;;;4974047;28;20215;-60
2022/05/17 03:38:06;;;;;;;8.90;6.43;;;14.10;99.90;;;;;;4972354;28;20187;-60
2022/05/17 03:40:32;;;;;;;9.77;7.37;;;14.10;99.90;;;;;;4973811;28;20645;-60
2022/05/17 03:42:57;;;;;;;7.37;6.40;;;14.10;99.90;;;;;;4971913;28;20720;-61
2022/05/17 03:45:23;;;;;;;8.03;7.23;;;14.10;99.90;;;;;;4972229;28;20509;-61
2022/05/17 03:47:49;;;;;;;9.37;7.50;;;14.10;99.90;;;;;;4972939;28;20207;-60
2022/05/17 03:50:14;;;;;;;9.17;7.00;;;14.20;99.90;;;;;;4972963;28;20597;-60
2022/05/17 03:52:40;;;;;;;7.83;7.07;;;14.20;99.90;;;;;;4973234;28;20228;-60
2022/05/17 03:55:07;;;;;;;8.17;6.80;;;14.30;99.90;;;;;;4970696;28;20207;-60
2022/05/17 03:57:33;;;;;;;10.00;6.33;;;14.30;99.90;;;;;;4971643;28;20192;-60
2022/05/17 03:59:59;;;;;;;9.13;6.53;;;14.40;99.90;;;;;;4972610;28;20446;-61
2022/05/17 04:02:25;;;;;;;6.87;6.17;;;14.50;99.90;;;;;;4971912;28;21012;-60
2022/05/17 04:04:52;;;;;;;8.50;7.10;;;14.50;99.90;;;;;;4974491;28;20204;-60
2022/05/17 04:07:18;;;;;;;8.90;7.37;;;14.50;99.90;;;;;;4970957;28;20446;-60
2022/05/17 04:09:43;;;;;;;9.07;8.07;;;14.50;99.90;;;;;;4971631;28;20532;-60
2022/05/17 04:12:10;;;;;;;9.07;7.27;;;14.50;99.90;;;;;;4972630;28;20565;-60
2022/05/17 04:14:36;;;;;;;8.73;6.50;;;14.50;99.90;;;;;;4970958;28;20203;-60
2022/05/17 04:17:02;;;;;;;9.40;5.77;;;14.60;99.90;;;;;;4970896;28;20910;-60
2022/05/17 04:19:27;;;;;;;12.30;7.30;;;14.70;99.90;;;;;;4969334;28;20184;-60
2022/05/17 04:21:53;;;;;;;7.43;6.80;;;14.80;99.90;;;;;;4970945;28;20200;-61
2022/05/17 04:24:18;;;;;;;6.73;5.90;;;14.90;99.90;;;;;;4972358;28;20681;-60
2022/05/17 04:26:44;;;;;;;6.40;5.90;;;14.90;99.90;;;;;;4973075;28;20176;-60
2022/05/17 04:29:10;;;;;;;12.30;6.97;;;15.00;99.90;;;;;;4970661;28;20179;-61
2022/05/17 04:31:36;;;;;;;7.57;6.50;;;15.10;99.90;;;;;;4971025;28;20184;-61
2022/05/17 04:34:03;;;;;;;12.27;11.00;;;15.20;99.90;;;;;;4971219;28;20983;-61
2022/05/17 04:36:29;;;;;;;7.20;6.57;;;15.30;99.90;;;;;;4972778;28;20851;-61
2022/05/17 04:38:54;;;;;;;6.60;6.00;;;15.30;99.90;;;;;;4972557;28;20971;-60
2022/05/17 04:41:21;;;;;;;9.60;6.30;;;15.40;99.90;;;;;;4971698;28;20459;-60
2022/05/17 04:43:46;;;;;;;8.77;6.57;;;15.50;99.90;;;;;;4971665;28;20184;-61
2022/05/17 04:46:12;;;;;;;6.90;6.20;;;15.60;99.90;;;;;;4971995;28;20431;-60
2022/05/17 04:48:38;;;;;;;6.80;6.20;;;15.60;99.90;;;;;;4970629;28;20561;-61
2022/05/17 04:51:09;;;;;;;5.93;5.40;;;15.70;99.90;;;;;;4971871;28;20936;-61
2022/05/17 04:53:35;;;;;;;7.00;6.50;;;15.80;99.90;;;;;;4968805;28;20523;-61
2022/05/17 04:56:01;;;;;;;6.77;6.27;;;15.90;99.90;;;;;;4969904;28;20846;-61
2022/05/17 04:58:27;;;;;;;7.90;6.17;;;16.00;99.90;;;;;;4963895;28;20500;-61
2022/05/17 05:00:53;;;;;;;6.57;5.93;;;16.10;99.90;;;;;;4970803;28;20858;-61
2022/05/17 05:03:18;;;;;;;7.47;6.23;;;16.20;99.90;;;;;;4971149;28;20208;-61
2022/05/17 05:05:44;;;;;;;6.47;5.77;;;16.40;99.90;;;;;;4967476;28;20203;-61
2022/05/17 05:08:10;;;;;;;7.13;5.97;;;16.50;99.90;;;;;;4970799;28;20179;-61
2022/05/17 05:10:36;;;;;;;7.37;6.63;;;16.60;99.90;;;;;;4969754;28;20444;-61
2022/05/17 05:13:01;;;;;;;10.30;7.20;;;16.70;99.90;;;;;;4968023;28;20184;-61
2022/05/17 05:15:27;;;;;;;6.87;6.27;;;16.90;99.90;;;;;;4962419;28;20389;-61
2022/05/17 05:17:53;;;;;;;6.80;6.20;;;17.10;99.90;;;;;;4971082;28;20184;-61
2022/05/17 05:20:18;;;;;;;6.50;5.90;;;17.30;99.90;;;;;;4970280;28;21382;-61
2022/05/17 05:22:44;;;;;;;7.87;6.03;;;17.40;99.90;;;;;;4974979;28;20232;-61
2022/05/17 05:25:11;;;;;;;6.70;6.20;;;17.50;99.90;;;;;;4971644;28;20204;-61
2022/05/17 05:27:38;;;;;;;8.00;6.27;;;17.70;99.90;;;;;;4970973;28;20184;-61
2022/05/17 05:30:06;;;;;;;8.67;7.40;;;17.70;99.90;;;;;;4969983;28;20578;-61
2022/05/17 05:32:31;;;;;;;5.80;5.40;;;17.80;99.90;;;;;;4969283;28;20459;-61
2022/05/17 05:34:57;;;;;;;7.53;6.57;;;17.90;99.90;;;;;;4971878;28;20459;-61
2022/05/17 05:37:22;;;;;;;9.00;7.63;;;18.10;99.90;;;;;;4972111;28;20186;-61
2022/05/17 05:39:48;;;;;;;6.50;5.93;;;18.30;99.90;;;;;;4971295;28;20267;-60
2022/05/17 05:42:13;;;;;;;5.93;5.20;;;18.50;99.90;;;;;;4961296;28;20263;-61
2022/05/17 05:44:39;;;;;;;7.30;6.70;;;18.70;99.90;;;;;;4968334;28;20196;-61
2022/05/17 05:47:05;;;;;;;6.73;6.10;;;18.80;99.90;;;;;;4966512;28;20263;-61
2022/05/17 05:49:30;;;;;;;7.67;7.00;;;19.00;99.90;;;;;;4963829;28;20184;-61
2022/05/17 05:51:56;;;;;;;6.83;6.13;;;19.30;99.90;;;;;;4964845;28;20231;-61
2022/05/17 05:54:21;;;;;;;6.67;6.00;;;19.50;99.90;;;;;;4963976;28;20219;-61
2022/05/17 05:56:47;;;;;;;8.47;6.50;;;19.70;99.90;;;;;;4961889;28;20199;-60
2022/05/17 05:59:12;;;;;;;13.47;8.40;;;19.90;99.90;;;;;;4966012;28;20222;-61
2022/05/17 06:01:39;;;;;;;9.30;7.27;;;20.00;99.90;;;;;;4960592;28;20279;-64
2022/05/17 06:04:05;;;;;;;7.63;6.70;;;20.10;99.90;;;;;;4965580;28;20211;-62
2022/05/17 06:06:31;;;;;;;6.57;5.83;;;20.10;99.90;;;;;;4965399;28;20444;-62
2022/05/17 06:08:56;;;;;;;9.60;6.63;;;20.20;99.90;;;;;;4970382;28;20490;-62
2022/05/17 06:11:22;;;;;;;7.30;6.60;;;20.40;99.90;;;;;;4970529;28;20634;-62
2022/05/17 06:13:48;;;;;;;10.83;6.83;;;20.60;99.90;;;;;;4955841;28;20451;-62
2022/05/17 06:16:14;;;;;;;6.97;6.47;;;20.70;99.90;;;;;;4945065;28;20371;-61
2022/05/17 06:18:39;;;;;;;8.10;6.80;;;20.80;99.90;;;;;;4965468;28;20621;-60
2022/05/17 06:21:05;;;;;;;9.77;6.70;;;20.80;99.90;;;;;;4973899;28;20443;-61
2022/05/17 06:23:31;;;;;;;6.80;6.20;;;20.70;99.90;;;;;;4968910;28;20192;-61
2022/05/17 06:25:57;;;;;;;9.83;6.83;;;20.80;99.90;;;;;;4970655;28;20431;-62
2022/05/17 06:28:23;;;;;;;6.37;5.33;;;20.90;99.90;;;;;;4964764;28;20709;-61
2022/05/17 06:30:49;;;;;;;7.57;6.37;;;21.00;99.90;;;;;;4967694;28;20188;-61
2022/05/17 06:33:15;;;;;;;7.90;7.13;;;21.10;99.90;;;;;;4968374;28;20517;-60
2022/05/17 06:35:45;;;;;;;7.30;6.70;;;21.30;99.90;;;;;;4976047;28;21323;-60
2022/05/17 06:38:11;;;;;;;8.33;7.47;;;21.40;99.90;;;;;;4964859;28;20813;-61
2022/05/17 06:40:37;;;;;;;7.10;6.57;;;21.40;99.90;;;;;;4969470;28;20450;-61
2022/05/17 06:43:04;;;;;;;7.47;6.70;;;21.50;99.90;;;;;;4968715;28;20546;-61
2022/05/17 06:45:30;;;;;;;13.73;7.67;;;21.70;99.90;;;;;;4965113;28;20459;-61
2022/05/17 06:47:55;;;;;;;7.67;6.80;;;21.90;99.90;;;;;;4970948;28;20438;-61
2022/05/17 06:50:21;;;;;;;7.63;6.87;;;22.10;99.90;;;;;;4970292;28;20470;-61
2022/05/17 06:52:47;;;;;;;8.93;7.27;;;22.40;99.90;;;;;;4961458;28;20199;-62
2022/05/17 06:55:13;;;;;;;7.83;6.40;;;22.70;99.90;;;;;;4966433;28;20726;-62
2022/05/17 06:57:43;;;;;;;7.20;6.70;;;23.00;99.90;;;;;;4968063;28;20957;-62
2022/05/17 07:00:11;;;;;;;7.43;6.73;;;23.00;99.90;;;;;;4968135;28;20448;-60
2022/05/17 07:02:37;;;;;;;9.50;7.70;;;22.40;99.90;;;;;;4965985;28;20463;-64
2022/05/17 07:05:03;;;;;;;8.87;6.00;;;22.50;99.90;;;;;;4970558;28;20980;-64
2022/05/17 07:07:28;;;;;;;7.90;7.20;;;22.70;99.90;;;;;;4967727;28;20527;-64
2022/05/17 07:15:23;;;;;;;11.90;9.13;;;21.80;99.90;;;;;;4964449;28;20470;-63
2022/05/17 07:17:48;;;;;;;10.00;8.20;;;21.40;99.90;;;;;;4967716;28;20439;-63
2022/05/17 07:20:15;;;;;;;9.10;8.10;;;21.30;99.90;;;;;;4967675;28;20196;-63
2022/05/17 07:22:42;;;;;;;10.50;9.00;;;21.30;99.90;;;;;;4968436;28;20212;-63
2022/05/17 07:25:08;;;;;;;10.30;8.27;;;21.60;99.90;;;;;;4967743;28;20614;-63
2022/05/17 07:27:34;;;;;;;10.30;8.33;;;21.60;99.90;;;;;;4967382;28;20439;-64
2022/05/17 07:29:59;;;;;;;10.27;8.40;;;22.10;99.90;;;;;;4967338;28;20442;-63
2022/05/17 07:32:24;;;;;;;10.97;9.90;;;22.50;99.90;;;;;;4964801;28;20184;-64
2022/05/17 07:34:50;;;;;;;13.03;8.50;;;22.90;99.90;;;;;;4968290;28;20627;-63
2022/05/17 07:37:16;;;;;;;9.07;8.23;;;23.20;99.90;;;;;;4974600;28;20575;-66
2022/05/17 07:39:42;;;;;;;8.40;7.67;;;23.40;99.90;;;;;;4970745;28;20406;-64
2022/05/17 07:42:09;;;;;;;9.93;7.73;;;23.50;99.90;;;;;;4970730;28;20467;-63
2022/05/17 07:44:35;;;;;;;8.30;7.50;;;23.10;99.90;;;;;;4966745;28;20200;-63
2022/05/17 07:47:01;;;;;;;9.13;7.77;;;23.50;99.90;;;;;;4968409;28;20840;-64
2022/05/17 07:49:27;;;;;;;13.37;10.33;;;23.60;99.90;;;;;;4968548;28;20513;-66
2022/05/17 07:51:54;;;;;;;8.53;7.63;;;23.80;99.90;;;;;;4968724;28;20466;-63
2022/05/17 07:54:20;;;;;;;9.10;8.10;;;24.30;99.90;;;;;;4970247;28;20467;-64
2022/05/17 07:56:46;;;;;;;13.37;11.10;;;24.70;99.90;;;;;;4970166;28;20451;-63
2022/05/17 07:59:11;;;;;;;8.10;7.50;;;24.80;99.90;;;;;;4968275;28;21009;-63
2022/05/17 08:01:37;;;;;;;9.20;7.60;;;25.10;99.90;;;;;;4967685;28;20243;-64
2022/05/17 08:04:03;;;;;;;8.27;7.47;;;25.00;99.90;;;;;;4964624;28;20203;-63
2022/05/17 08:06:28;;;;;;;8.83;6.10;;;24.70;99.90;;;;;;4964376;28;20764;-63
2022/05/17 08:08:54;;;;;;;6.80;6.10;;;24.80;99.90;;;;;;4969466;28;20544;-64
2022/05/17 08:11:19;;;;;;;6.97;5.40;;;25.00;99.90;;;;;;4969422;28;20181;-63
2022/05/17 08:13:46;;;;;;;7.83;7.03;;;25.40;99.90;;;;;;4963507;28;20206;-63
2022/05/17 08:16:12;;;;;;;5.77;5.27;;;25.80;99.90;;;;;;4969211;28;20173;-63
2022/05/17 08:18:37;;;;;;;8.93;5.63;;;26.40;99.50;;;;;;4969065;28;20443;-64
2022/05/17 08:21:02;;;;;;;7.53;6.77;;;26.80;98.40;;;;;;4968830;28;20189;-66
2022/05/17 08:23:28;;;;;;;10.17;6.40;;;26.90;98.00;;;;;;4966282;28;20631;-63
2022/05/17 08:28:38;;;;;;;8.30;5.87;;;26.90;97.00;;;;;;4969778;28;20190;-64
2022/05/17 08:31:03;;;;;;;5.77;5.27;;;27.50;95.70;;;;;;4968320;28;21220;-67
2022/05/17 08:33:30;;;;;;;8.87;4.83;;;27.70;94.10;;;;;;4966702;28;20192;-63
2022/05/17 08:36:00;;;;;;;5.33;4.73;;;27.80;92.20;;;;;;4968992;28;20267;-65
2022/05/17 08:38:29;;;;;;;6.40;5.57;;;28.00;91.10;;;;;;4968631;28;20467;-68
2022/05/17 08:41:00;;;;;;;6.43;5.67;;;28.30;90.30;;;;;;4967855;28;20435;-65
2022/05/17 08:43:36;;;;;;;6.50;5.40;;;28.50;90.90;;;;;;4966077;28;20471;-70
2022/05/17 08:46:13;;;;;;;6.77;6.10;;;28.50;90.70;;;;;;4964289;28;20461;-64
2022/05/17 08:48:59;;;;;;;5.63;5.13;;;28.60;90.80;;;;;;4965237;28;20454;-67
2022/05/17 08:51:49;;;;;;;6.27;5.67;;;29.20;90.70;;;;;;4966045;28;20453;-69
2022/05/17 08:54:23;;;;;;;6.13;5.30;;;29.00;88.90;;;;;;4961397;28;20561;-69
2022/05/17 08:57:04;;;;;;;5.73;5.17;;;28.80;88.30;;;;;;4968496;28;20440;-64
2022/05/17 08:59:35;;;;;;;5.40;4.90;;;29.20;84.50;;;;;;4968800;28;20444;-62
2022/05/17 09:02:20;;;;;;;5.57;5.07;;;29.60;84.30;;;;;;4972058;28;20478;-62
2022/05/17 09:05:15;;;;;;;6.47;5.57;;;29.40;85.70;;;;;;4968053;28;20972;-61
2022/05/17 09:07:56;;;;;;;5.97;4.80;;;29.00;84.70;;;;;;4953936;28;20482;-61
2022/05/17 09:10:34;;;;;;;5.87;5.47;;;29.40;84.50;;;;;;4968427;28;20912;-62
2022/05/17 09:13:27;;;;;;;9.60;5.30;;;29.80;82.30;;;;;;4962592;28;20529;-61
2022/05/17 09:15:55;;;;;;;5.03;4.53;;;29.80;79.80;;;;;;4968142;28;20510;-62
2022/05/17 09:18:23;;;;;;;5.20;4.70;;;29.60;79.70;;;;;;4966623;28;20445;-64
2022/05/17 09:20:49;;;;;;;6.33;5.67;;;29.60;79.80;;;;;;4970538;28;20443;-62
2022/05/17 09:23:14;;;;;;;5.80;5.13;;;28.90;79.30;;;;;;4962296;28;20477;-62
2022/05/17 09:25:56;;;;;;;5.70;4.50;;;28.90;79.70;;;;;;4968610;28;20251;-62
2022/05/17 09:28:44;;;;;;;6.33;4.97;;;29.40;79.80;;;;;;4968372;28;20176;-61
2022/05/17 09:31:17;;;;;;;8.90;4.60;;;30.00;78.00;;;;;;4969063;28;20565;-62
2022/05/17 09:33:43;;;;;;;6.00;5.43;;;29.80;76.30;;;;;;4968198;28;20812;-62
2022/05/17 09:36:19;;;;;;;5.33;4.87;;;29.90;75.80;;;;;;4963467;28;20447;-62
2022/05/17 09:38:48;;;;;;;8.10;5.70;;;30.10;75.90;;;;;;4966423;28;20971;-62
2022/05/17 09:41:19;;;;;;;7.63;4.70;;;30.70;74.80;;;;;;4963567;28;21207;-62
2022/05/17 09:44:14;;;;;;;7.77;5.00;;;31.10;72.10;;;;;;4962460;28;20439;-63
2022/05/17 09:46:48;;;;;;;6.37;5.50;;;31.70;70.80;;;;;;4965537;28;20482;-62
2022/05/17 09:52:32;;;;;;;6.03;5.43;;;32.60;66.60;;;;;;4964918;28;20534;-61
2022/05/17 09:55:10;;;;;;;6.93;4.50;;;31.90;66.40;;;;;;4965842;28;20533;-62
2022/05/17 09:57:36;;;;;;;5.33;4.40;;;30.80;67.10;;;;;;4968696;28;20450;-62
2022/05/17 10:00:13;;;;;;;5.10;4.70;;;30.40;68.20;;;;;;4964755;28;20803;-62
2022/05/17 10:02:41;;;;;;;7.07;4.50;;;29.80;70.00;;;;;;4967376;28;20610;-61
2022/05/17 10:05:21;;;;;;;5.60;5.10;;;29.40;71.30;;;;;;4966036;28;20550;-61
2022/05/17 10:07:54;;;;;;;4.90;4.50;;;29.30;70.00;;;;;;4966703;28;20442;-61
2022/05/17 10:10:36;;;;;;;5.23;4.43;;;29.10;69.80;;;;;;4968681;28;20523;-62
2022/05/17 10:13:30;;;;;;;6.13;4.80;;;28.50;69.80;;;;;;4965635;28;20433;-62
2022/05/17 10:16:07;;;;;;;5.57;4.30;;;28.20;72.60;;;;;;4960156;28;20473;-64
2022/05/17 10:18:43;;;;;;;9.47;8.47;;;29.00;70.30;;;;;;4967243;28;20447;-63
2022/05/17 10:21:19;;;;;;;11.17;9.70;;;31.20;65.40;;;;;;4967927;28;20889;-61
2022/05/17 10:24:00;;;;;;;9.90;6.20;;;32.90;62.60;;;;;;4967683;28;20442;-63
2022/05/17 10:26:40;;;;;;;5.40;4.60;;;33.20;60.60;;;;;;4977081;28;20912;-61
2022/05/17 10:29:21;;;;;;;5.43;4.90;;;33.50;60.10;;;;;;4967299;28;20536;-64
2022/05/17 10:32:10;;;;;;;17.43;11.37;;;34.30;58.60;;;;;;4968380;28;20447;-62
2022/05/17 10:34:37;;;;;;;7.50;6.50;;;34.10;58.60;;;;;;4965102;28;20598;-64
2022/05/17 10:37:07;;;;;;;5.77;5.27;;;34.00;59.20;;;;;;4962757;28;20443;-63
2022/05/17 10:39:39;;;;;;;5.40;4.83;;;34.80;57.00;;;;;;4968947;28;20436;-63
2022/05/17 10:42:05;;;;;;;5.60;5.10;;;35.40;54.90;;;;;;4969699;28;20558;-64
2022/05/17 10:44:45;;;;;;;7.43;6.70;;;35.00;55.50;;;;;;4966917;28;20454;-61
2022/05/17 10:47:35;;;;;;;5.27;4.87;;;35.40;54.80;;;;;;4968581;28;20510;-62
2022/05/17 10:50:19;;;;;;;12.20;9.60;;;36.00;53.40;;;;;;4968500;28;20494;-62
2022/05/17 10:53:12;;;;;;;8.73;7.67;;;35.50;53.70;;;;;;4965863;28;20830;-62
2022/05/17 10:55:43;;;;;;;9.53;8.53;;;33.90;54.10;;;;;;4975644;28;20471;-61
2022/05/17 10:58:16;;;;;;;5.30;4.80;;;32.00;56.50;;;;;;4963383;28;20431;-61
2022/05/17 11:00:47;;;;;;;6.20;4.37;;;31.00;57.20;;;;;;4969534;28;20443;-62
2022/05/17 11:03:21;;;;;;;6.30;5.53;;;30.20;58.50;;;;;;4969089;28;20582;-63
2022/05/17 11:06:05;;;;;;;5.23;4.70;;;30.30;58.10;;;;;;4962379;28;20454;-63
2022/05/17 11:08:54;;;;;;;4.97;4.53;;;31.80;56.70;;;;;;4970426;28;20439;-61
2022/05/17 11:11:41;;;;;;;4.83;4.33;;;33.60;54.60;;;;;;4968790;28;20419;-61
2022/05/17 11:14:22;;;;;;;5.60;5.10;;;36.00;51.00;;;;;;4969365;28;20455;-63
2022/05/17 11:16:57;;;;;;;5.97;5.37;;;37.90;48.40;;;;;;4968202;28;20435;-62
2022/05/17 11:19:32;;;;;;;3.90;3.60;;;38.30;46.40;;;;;;4974185;28;20877;-60
2022/05/17 11:22:08;;;;;;;4.90;3.20;;;38.70;43.80;;;;;;4975454;28;20984;-61
2022/05/17 11:24:39;;;;;;;5.90;4.10;;;38.80;43.10;;;;;;4980243;28;21029;-62
2022/05/17 11:27:16;;;;;;;6.03;4.10;;;37.50;43.50;;;;;;4972068;28;20443;-61
2022/05/17 11:30:24;;;;;;;4.30;3.93;;;36.50;44.80;;;;;;4974040;28;20430;-61
2022/05/17 11:33:10;;;;;;;4.60;3.90;;;36.10;44.90;;;;;;4973926;28;20846;-62
2022/05/17 11:35:47;;;;;;;4.57;4.17;;;38.00;43.00;;;;;;4965853;28;20448;-62
2022/05/17 11:38:19;;;;;;;5.67;4.23;;;37.70;41.80;;;;;;4967937;28;20834;-62
2022/05/17 11:40:49;;;;;;;4.30;3.90;;;39.30;41.60;;;;;;4972364;28;20427;-61
2022/05/17 11:43:40;;;;;;;4.63;4.10;;;40.30;39.70;;;;;;4970492;28;20470;-61
2022/05/17 11:46:28;;;;;;;4.77;3.90;;;39.90;39.60;;;;;;4975514;28;20484;-61
2022/05/17 11:48:56;;;;;;;5.00;3.70;;;40.90;39.30;;;;;;4969633;28;20567;-62
2022/05/17 11:51:30;;;;;;;3.97;3.50;;;40.90;38.50;;;;;;4971857;28;20447;-62
2022/05/17 11:53:56;;;;;;;5.20;4.43;;;40.70;37.80;;;;;;4972515;28;20439;-61
2022/05/17 11:56:24;;;;;;;4.47;4.07;;;37.70;39.60;;;;;;4970343;28;20444;-63
2022/05/17 11:58:53;;;;;;;4.53;3.53;;;35.10;42.50;;;;;;4968288;28;20427;-61
2022/05/17 12:01:30;;;;;;;4.27;3.90;;;33.40;44.10;;;;;;4972624;28;20435;-61
2022/05/17 12:04:02;;;;;;;6.60;4.47;;;31.80;45.50;;;;;;4967507;28;20423;-61
2022/05/17 12:07:02;;;;;;;4.53;4.13;;;30.50;47.30;;;;;;4974602;28;21044;-60
2022/05/17 12:09:47;;;;;;;3.77;3.37;;;29.80;48.50;;;;;;4959892;28;20440;-61
2022/05/17 12:12:31;;;;;;;4.37;4.07;;;31.80;45.80;;;;;;4967545;28;20538;-61
2022/05/17 12:15:03;;;;;;;4.87;4.47;;;32.90;45.50;;;;;;4969196;28;20462;-61
2022/05/17 12:17:40;;;;;;;3.87;3.57;;;34.40;44.20;;;;;;4968388;28;20447;-63
2022/05/17 12:20:38;;;;;;;5.40;5.00;;;36.50;41.80;;;;;;4971998;28;20435;-61
2022/05/17 12:23:16;;;;;;;3.70;3.43;;;38.50;39.00;;;;;;4968705;28;20831;-62
2022/05/17 12:26:02;;;;;;;4.00;3.60;;;39.60;38.00;;;;;;4971114;28;20451;-61
2022/05/17 12:28:41;;;;;;;3.77;3.40;;;39.40;36.70;;;;;;4970402;28;20438;-60
2022/05/17 12:31:11;;;;;;;3.10;2.90;;;40.30;36.40;;;;;;4969903;28;20458;-61
2022/05/17 12:33:48;;;;;;;4.70;3.33;;;39.80;35.70;;;;;;4964729;28;20530;-61
2022/05/17 12:36:16;;;;;;;3.57;3.23;;;39.70;36.00;;;;;;4974601;28;20467;-63
2022/05/17 12:44:24;;;;;;;3.30;2.70;;;39.70;35.30;;;;;;4963483;28;21085;-63
2022/05/17 12:46:52;;;;;;;3.03;2.73;;;38.30;35.30;;;;;;4970102;28;20523;-61
2022/05/17 12:49:30;;;;;;;3.17;2.87;;;35.80;37.10;;;;;;4967081;28;20191;-61
2022/05/17 12:52:00;;;;;;;3.40;2.77;;;35.40;37.70;;;;;;4970575;28;20443;-61
2022/05/17 12:54:29;;;;;;;3.03;2.80;;;35.60;37.50;;;;;;4970930;28;20463;-62
2022/05/17 12:56:55;;;;;;;4.03;2.40;;;36.70;36.00;;;;;;4972126;28;20522;-61
2022/05/17 12:59:27;;;;;;;3.00;2.80;;;37.80;36.40;;;;;;4970283;28;20537;-63
2022/05/17 13:01:59;;;;;;;3.07;2.77;;;39.00;34.70;;;;;;4972191;28;20204;-62
2022/05/17 13:04:28;;;;;;;3.13;2.67;;;39.60;34.20;;;;;;4968011;28;20987;-61
2022/05/17 13:07:14;;;;;;;3.20;3.00;;;40.10;34.00;;;;;;4972971;28;20804;-61
2022/05/17 13:09:58;;;;;;;2.20;2.00;;;41.60;33.20;;;;;;4971711;28;20431;-61
2022/05/17 13:12:27;;;;;;;2.93;2.23;;;42.60;32.20;;;;;;4968491;28;20471;-61
2022/05/17 13:14:53;;;;;;;2.30;2.10;;;43.10;31.80;;;;;;4966025;28;20493;-62
2022/05/17 13:17:22;;;;;;;2.40;2.20;;;42.40;36.60;;;;;;4970553;28;20466;-61
2022/05/17 13:19:52;;;;;;;3.13;2.93;;;42.30;45.10;;;;;;4968150;28;20199;-63